createdAt,value
2023-08-15T00:00:15.218Z,16.69
2023-08-15T00:02:48.486Z,16.67
2023-08-15T00:05:35.213Z,16.64
2023-08-15T00:08:08.354Z,16.63
2023-08-15T00:10:55.189Z,16.61
2023-08-15T00:13:28.581Z,16.55
2023-08-15T00:16:15.244Z,16.49
2023-08-15T00:18:49.624Z,16.45
2023-08-15T00:21:36.238Z,16.38
2023-08-15T00:24:09.289Z,16.35
2023-08-15T00:26:56.255Z,16.32
2023-08-15T00:29:36.214Z,16.24
2023-08-15T00:32:23.317Z,16.21
2023-08-15T00:34:56.350Z,16.19
2023-08-15T00:37:43.200Z,16.14
2023-08-15T00:40:17.410Z,16.10
2023-08-15T00:43:04.210Z,16.03
2023-08-15T00:45:45.324Z,16.00
2023-08-15T00:48:37.235Z,15.97
2023-08-15T00:51:17.247Z,15.93
2023-08-15T00:54:11.248Z,15.88
2023-08-15T00:56:58.230Z,15.84
2023-08-15T00:59:31.310Z,15.85
2023-08-15T01:02:25.240Z,15.83
2023-08-15T01:05:19.246Z,15.80
2023-08-15T01:08:06.275Z,15.76
2023-08-15T01:10:39.339Z,15.74
2023-08-15T01:13:37.233Z,15.70
2023-08-15T01:16:15.389Z,15.64
2023-08-15T01:19:13.244Z,15.60
2023-08-15T01:21:51.402Z,15.56
2023-08-15T01:24:39.258Z,15.54
2023-08-15T01:27:12.355Z,15.51
2023-08-15T01:29:59.282Z,15.49
2023-08-15T01:32:54.401Z,15.45
2023-08-15T01:35:46.235Z,15.40
2023-08-15T01:39:01.636Z,15.38
2023-08-15T01:41:49.308Z,15.36
2023-08-15T01:44:30.270Z,15.30
2023-08-15T01:47:25.272Z,15.27
2023-08-15T01:50:13.255Z,15.25
2023-08-15T01:52:53.311Z,15.21
2023-08-15T01:55:47.247Z,15.17
2023-08-15T01:58:41.457Z,15.14
2023-08-15T02:01:28.323Z,15.12
2023-08-15T02:04:08.354Z,15.08
2023-08-15T02:06:55.360Z,15.04
2023-08-15T02:09:35.391Z,15.02
2023-08-15T02:12:23.249Z,14.99
2023-08-15T02:15:03.254Z,14.97
2023-08-15T02:17:50.292Z,14.93
2023-08-15T02:20:23.469Z,14.87
2023-08-15T02:23:13.315Z,14.81
2023-08-15T02:25:46.442Z,14.77
2023-08-15T02:28:33.262Z,14.72
2023-08-15T02:31:13.337Z,14.70
2023-08-15T02:34:07.257Z,14.67
2023-08-15T02:37:01.322Z,14.64
2023-08-15T02:39:55.276Z,14.61
2023-08-15T02:42:49.416Z,14.58
2023-08-15T02:45:37.557Z,14.58
2023-08-15T02:48:11.599Z,14.58
2023-08-15T02:50:59.487Z,14.52
2023-08-15T02:53:32.387Z,14.48
2023-08-15T02:56:19.312Z,14.45
2023-08-15T02:59:00.400Z,14.41
2023-08-15T03:01:54.466Z,14.36
2023-08-15T03:04:48.358Z,14.35
2023-08-15T03:07:42.288Z,14.37
2023-08-15T03:10:29.307Z,14.33
2023-08-15T03:13:02.446Z,14.30
2023-08-15T03:15:49.348Z,14.29
2023-08-15T03:18:22.487Z,14.29
2023-08-15T03:21:11.387Z,14.26
2023-08-15T03:23:44.434Z,14.28
2023-08-15T03:26:33.310Z,14.32
2023-08-15T03:29:06.439Z,14.34
2023-08-15T03:31:56.334Z,14.36
2023-08-15T03:34:29.462Z,14.38
2023-08-15T03:37:16.304Z,14.38
2023-08-15T03:39:50.354Z,14.37
2023-08-15T03:42:37.368Z,14.34
2023-08-15T03:45:18.361Z,14.32
2023-08-15T03:48:12.324Z,14.30
2023-08-15T03:51:02.369Z,14.28
2023-08-15T03:53:36.528Z,14.31
2023-08-15T03:56:23.365Z,14.32
2023-08-15T03:59:04.537Z,14.31
2023-08-15T04:01:59.276Z,14.27
2023-08-15T04:04:53.367Z,14.23
2023-08-15T04:07:40.329Z,14.21
2023-08-15T04:10:15.779Z,14.22
2023-08-15T04:13:03.365Z,14.19
2023-08-15T04:15:43.367Z,14.16
2023-08-15T04:18:39.248Z,14.15
2023-08-15T04:21:33.377Z,14.17
2023-08-15T04:24:20.328Z,14.19
2023-08-15T04:27:00.337Z,14.21
2023-08-15T04:29:54.330Z,14.25
2023-08-15T04:32:51.380Z,14.27
2023-08-15T04:35:38.372Z,14.27
2023-08-15T04:38:22.328Z,14.29
2023-08-15T04:41:09.368Z,14.30
2023-08-15T04:43:42.496Z,14.34
2023-08-15T04:46:32.350Z,14.38
2023-08-15T04:49:05.455Z,14.41
2023-08-15T04:51:52.332Z,14.46
2023-08-15T04:54:25.505Z,14.54
2023-08-15T04:57:12.348Z,14.66
2023-08-15T04:59:45.500Z,14.77
2023-08-15T05:02:39.418Z,14.86
2023-08-15T05:05:33.472Z,15.00
2023-08-15T05:08:27.376Z,15.16
2023-08-15T05:11:21.394Z,15.33
2023-08-15T05:14:09.369Z,15.50
2023-08-15T05:16:49.374Z,15.63
2023-08-15T05:19:36.379Z,15.78
2023-08-15T05:22:09.585Z,15.92
2023-08-15T05:24:56.369Z,16.07
2023-08-15T05:27:29.505Z,16.21
2023-08-15T05:30:17.378Z,16.38
2023-08-15T05:32:53.558Z,16.53
2023-08-15T05:35:33.389Z,16.68
2023-08-15T05:38:13.631Z,16.83
2023-08-15T05:40:46.541Z,16.97
2023-08-15T05:43:33.371Z,17.10
2023-08-15T05:46:09.230Z,17.24
2023-08-15T05:48:56.372Z,17.40
2023-08-15T05:51:36.434Z,17.49
2023-08-15T05:54:23.378Z,17.65
2023-08-15T05:57:04.540Z,17.78
2023-08-15T05:59:51.383Z,17.91
2023-08-15T06:02:26.754Z,18.05
2023-08-15T06:05:13.385Z,18.19
2023-08-15T06:07:46.556Z,18.32
2023-08-15T06:10:34.416Z,18.44
2023-08-15T06:13:14.385Z,18.57
2023-08-15T06:16:01.400Z,18.73
2023-08-15T06:18:34.571Z,18.89
2023-08-15T06:21:21.394Z,19.00
2023-08-15T06:24:01.410Z,19.09
2023-08-15T06:26:55.406Z,19.21
2023-08-15T06:29:49.402Z,19.34
2023-08-15T06:32:37.456Z,19.48
2023-08-15T06:35:11.511Z,19.62
2023-08-15T06:37:58.445Z,19.74
2023-08-15T06:40:38.445Z,19.88
2023-08-15T06:43:25.475Z,20.01
2023-08-15T06:46:05.433Z,20.14
2023-08-15T06:48:52.437Z,20.30
2023-08-15T06:51:25.519Z,20.45
2023-08-15T06:54:12.437Z,20.57
2023-08-15T06:56:45.529Z,20.71
2023-08-15T06:59:32.467Z,20.83
2023-08-15T07:02:13.476Z,20.96
2023-08-15T07:05:07.474Z,21.04
2023-08-15T07:08:01.434Z,21.16
2023-08-15T07:10:55.469Z,21.32
2023-08-15T07:13:42.475Z,21.41
2023-08-15T07:16:15.667Z,21.56
2023-08-15T07:19:02.442Z,21.69
2023-08-15T07:21:35.519Z,21.81
2023-08-15T07:24:23.473Z,21.94
2023-08-15T07:26:56.543Z,22.03
2023-08-15T07:29:43.481Z,22.09
2023-08-15T07:32:23.841Z,22.18
2023-08-15T07:35:18.501Z,22.26
2023-08-15T07:38:12.500Z,22.37
2023-08-15T07:41:09.155Z,22.45
2023-08-15T07:43:55.472Z,22.54
2023-08-15T07:46:29.021Z,22.65
2023-08-15T07:49:15.465Z,22.71
2023-08-15T07:51:48.661Z,22.73
2023-08-15T07:54:35.471Z,22.76
2023-08-15T07:57:08.588Z,22.82
2023-08-15T07:59:55.470Z,22.90
2023-08-15T08:02:28.624Z,22.98
2023-08-15T08:05:17.662Z,23.03
2023-08-15T08:07:52.627Z,23.17
2023-08-15T08:10:40.551Z,23.36
2023-08-15T08:13:24.495Z,23.50
2023-08-15T08:16:18.595Z,23.64
2023-08-15T08:19:05.481Z,23.76
2023-08-15T08:21:38.745Z,23.93
2023-08-15T08:24:25.517Z,24.04
2023-08-15T08:27:05.510Z,24.13
2023-08-15T08:29:52.496Z,24.27
2023-08-15T08:32:27.781Z,24.38
2023-08-15T08:35:14.533Z,24.50
2023-08-15T08:37:55.607Z,24.61
2023-08-15T08:40:49.524Z,24.75
2023-08-15T08:43:36.549Z,24.92
2023-08-15T08:46:12.647Z,25.02
2023-08-15T08:48:59.515Z,25.10
2023-08-15T08:51:33.603Z,25.17
2023-08-15T08:54:26.660Z,25.19
2023-08-15T08:57:17.517Z,25.25
2023-08-15T09:00:19.519Z,25.33
2023-08-15T09:03:13.668Z,25.47
2023-08-15T09:06:01.513Z,25.55
2023-08-15T09:08:41.527Z,25.62
2023-08-15T09:11:35.520Z,25.70
2023-08-15T09:14:25.515Z,25.75
2023-08-15T09:16:58.836Z,25.85
2023-08-15T09:19:49.519Z,25.89
2023-08-15T09:22:41.526Z,25.94
2023-08-15T09:25:29.515Z,26.06
2023-08-15T09:28:09.535Z,26.16
2023-08-15T09:31:11.545Z,26.26
2023-08-15T09:33:59.525Z,26.40
2023-08-15T09:36:35.609Z,26.52
2023-08-15T09:39:23.533Z,26.54
2023-08-15T09:41:56.673Z,26.56
2023-08-15T09:44:47.526Z,26.57
2023-08-15T09:47:21.018Z,26.65
2023-08-15T09:50:09.542Z,26.69
2023-08-15T09:52:55.533Z,26.79
2023-08-15T09:55:51.528Z,26.93
2023-08-15T09:58:38.560Z,27.06
2023-08-15T10:01:15.854Z,27.17
2023-08-15T10:04:14.579Z,27.21
2023-08-15T10:07:01.551Z,27.31
2023-08-15T10:09:45.531Z,27.44
2023-08-15T10:12:41.555Z,27.51
2023-08-15T10:15:29.554Z,27.53
2023-08-15T10:18:02.771Z,27.61
2023-08-15T10:20:49.548Z,27.66
2023-08-15T10:23:40.663Z,27.71
2023-08-15T10:26:29.998Z,27.66
2023-08-15T10:29:03.644Z,27.65
2023-08-15T10:31:50.580Z,27.68
2023-08-15T10:34:25.638Z,27.69
2023-08-15T10:37:42.576Z,27.70
2023-08-15T10:40:21.851Z,27.67
2023-08-15T10:43:11.626Z,27.67
2023-08-15T10:45:51.717Z,27.63
2023-08-15T10:49:03.486Z,27.63
2023-08-15T10:51:49.617Z,27.68
2023-08-15T10:54:45.712Z,27.76
2023-08-15T10:57:42.540Z,27.85
2023-08-15T11:00:37.602Z,27.85
2023-08-15T11:03:24.668Z,27.90
2023-08-15T11:06:04.588Z,27.92
2023-08-15T11:09:00.571Z,27.99
2023-08-15T11:11:47.614Z,28.08
2023-08-15T11:14:26.671Z,28.15
2023-08-15T11:17:14.603Z,28.22
2023-08-15T11:19:47.683Z,28.23
2023-08-15T11:22:34.601Z,28.26
2023-08-15T11:25:09.397Z,28.27
2023-08-15T11:27:58.591Z,28.29
2023-08-15T11:30:41.602Z,28.33
2023-08-15T11:33:36.601Z,28.35
2023-08-15T11:36:30.638Z,28.39
2023-08-15T11:39:27.618Z,28.43
2023-08-15T11:42:21.659Z,28.49
2023-08-15T11:45:24.662Z,28.52
2023-08-15T11:48:18.624Z,28.54
2023-08-15T11:51:05.620Z,28.54
2023-08-15T11:53:42.572Z,28.53
2023-08-15T11:56:29.626Z,28.50
2023-08-15T11:59:07.718Z,28.51
2023-08-15T12:01:56.635Z,28.48
2023-08-15T12:04:29.723Z,28.48
2023-08-15T12:07:17.623Z,28.46
2023-08-15T12:09:50.799Z,28.46
2023-08-15T12:12:44.621Z,28.45
2023-08-15T12:15:19.734Z,28.46
2023-08-15T12:18:06.661Z,28.42
2023-08-15T12:20:47.623Z,28.46
2023-08-15T12:23:34.648Z,28.45
2023-08-15T12:26:07.720Z,28.46
2023-08-15T12:28:54.649Z,28.40
2023-08-15T12:31:27.764Z,28.35
2023-08-15T12:34:14.664Z,28.32
2023-08-15T12:36:47.741Z,28.29
2023-08-15T12:39:34.629Z,28.19
2023-08-15T12:42:08.961Z,28.17
2023-08-15T12:44:55.665Z,28.15
2023-08-15T12:47:28.802Z,28.15
2023-08-15T12:50:15.660Z,28.08
2023-08-15T12:52:48.759Z,27.95
2023-08-15T12:55:35.685Z,27.83
2023-08-15T12:58:08.776Z,27.78
2023-08-15T13:00:56.881Z,27.76
2023-08-15T13:03:38.691Z,27.76
2023-08-15T13:06:25.652Z,27.73
2023-08-15T13:09:05.678Z,27.74
2023-08-15T13:11:52.663Z,27.68
2023-08-15T13:14:33.206Z,27.67
2023-08-15T13:17:20.898Z,27.64
2023-08-15T13:19:54.771Z,27.65
2023-08-15T13:22:41.675Z,27.63
2023-08-15T13:25:22.698Z,27.64
2023-08-15T13:28:16.694Z,27.63
2023-08-15T13:31:03.710Z,27.61
2023-08-15T13:33:36.814Z,27.62
2023-08-15T13:36:23.692Z,27.62
2023-08-15T13:39:03.737Z,27.61
2023-08-15T13:41:50.700Z,27.57
2023-08-15T13:44:30.681Z,27.57
2023-08-15T13:47:17.729Z,27.55
2023-08-15T13:49:57.682Z,27.51
2023-08-15T13:52:44.712Z,27.47
2023-08-15T13:55:17.881Z,27.47
2023-08-15T13:58:04.697Z,27.44
2023-08-15T14:00:37.903Z,27.44
2023-08-15T14:03:37.695Z,27.42
2023-08-15T14:06:31.709Z,27.40
2023-08-15T14:09:25.701Z,27.36
2023-08-15T14:12:12.720Z,27.35
2023-08-15T14:14:45.857Z,27.34
2023-08-15T14:17:32.744Z,27.33
2023-08-15T14:20:05.825Z,27.32
2023-08-15T14:22:52.716Z,27.29
2023-08-15T14:25:25.834Z,27.29
2023-08-15T14:28:12.716Z,27.26
2023-08-15T14:30:46.479Z,27.25
2023-08-15T14:33:33.740Z,27.23
2023-08-15T14:36:07.383Z,27.24
2023-08-15T14:38:53.765Z,27.25
2023-08-15T14:41:33.730Z,27.23
2023-08-15T14:44:20.756Z,27.20
2023-08-15T14:46:53.858Z,27.15
2023-08-15T14:49:40.731Z,27.10
2023-08-15T14:52:21.050Z,27.10
2023-08-15T14:55:07.732Z,27.07
2023-08-15T14:57:40.920Z,27.06
2023-08-15T15:00:27.766Z,27.02
2023-08-15T15:03:01.143Z,27.02
2023-08-15T15:05:47.759Z,26.96
2023-08-15T15:08:27.825Z,26.94
2023-08-15T15:11:21.760Z,26.87
2023-08-15T15:14:16.775Z,26.84
2023-08-15T15:17:04.774Z,26.84
2023-08-15T15:19:44.758Z,26.84
2023-08-15T15:22:31.755Z,26.85
2023-08-15T15:25:11.779Z,26.82
2023-08-15T15:28:05.756Z,26.76
2023-08-15T15:30:59.779Z,26.72
2023-08-15T15:33:46.769Z,26.70
2023-08-15T15:36:19.846Z,26.67
2023-08-15T15:39:06.786Z,26.65
2023-08-15T15:41:39.894Z,26.63
2023-08-15T15:44:26.806Z,26.63
2023-08-15T15:47:06.900Z,26.65
2023-08-15T15:49:53.800Z,26.64
2023-08-15T15:52:33.776Z,26.63
2023-08-15T15:55:20.772Z,26.62
2023-08-15T15:57:54.942Z,26.62
2023-08-15T16:00:41.788Z,26.60
2023-08-15T16:03:21.829Z,26.60
2023-08-15T16:06:15.782Z,26.58
2023-08-15T16:09:09.808Z,26.54
2023-08-15T16:11:56.865Z,26.50
2023-08-15T16:14:29.932Z,26.44
2023-08-15T16:17:16.812Z,26.37
2023-08-15T16:19:49.940Z,26.30
2023-08-15T16:22:36.816Z,26.24
2023-08-15T16:25:16.817Z,26.18
2023-08-15T16:28:10.794Z,26.10
2023-08-15T16:30:57.843Z,26.01
2023-08-15T16:33:30.914Z,25.94
2023-08-15T16:36:17.827Z,25.87
2023-08-15T16:38:50.933Z,25.79
2023-08-15T16:41:37.811Z,25.71
2023-08-15T16:44:17.805Z,25.63
2023-08-15T16:47:04.951Z,25.55
2023-08-15T16:49:37.974Z,25.47
2023-08-15T16:52:24.930Z,25.43
2023-08-15T16:55:05.845Z,25.37
2023-08-15T16:57:52.825Z,25.31
2023-08-15T17:00:32.813Z,25.28
2023-08-15T17:03:19.934Z,25.19
2023-08-15T17:05:59.813Z,25.13
2023-08-15T17:08:46.829Z,25.07
2023-08-15T17:11:26.832Z,25.00
2023-08-15T17:14:20.839Z,24.92
2023-08-15T17:17:07.831Z,24.85
2023-08-15T17:19:49.827Z,24.79
2023-08-15T17:22:41.843Z,24.70
2023-08-15T17:25:22.853Z,24.63
2023-08-15T17:28:09.843Z,24.56
2023-08-15T17:30:42.957Z,24.49
2023-08-15T17:33:29.845Z,24.41
2023-08-15T17:36:09.837Z,24.36
2023-08-15T17:38:56.841Z,24.29
2023-08-15T17:41:36.867Z,24.22
2023-08-15T17:44:30.845Z,24.14
2023-08-15T17:47:24.895Z,24.07
2023-08-15T17:50:19.842Z,23.99
2023-08-15T17:53:13.869Z,23.92
2023-08-15T17:56:07.870Z,23.83
2023-08-15T17:59:02.847Z,23.71
2023-08-15T18:01:58.927Z,23.63
2023-08-15T18:04:54.912Z,23.55
2023-08-15T18:07:48.893Z,23.46
2023-08-15T18:10:35.862Z,23.41
2023-08-15T18:13:09.056Z,23.31
2023-08-15T18:15:55.905Z,23.25
2023-08-15T18:18:29.247Z,23.17
2023-08-15T18:21:15.913Z,23.12
2023-08-15T18:23:49.064Z,23.06
2023-08-15T18:26:35.885Z,23.03
2023-08-15T18:29:08.972Z,22.98
2023-08-15T18:31:55.893Z,22.90
2023-08-15T18:34:28.993Z,22.84
2023-08-15T18:37:15.880Z,22.77
2023-08-15T18:39:55.900Z,22.70
2023-08-15T18:42:49.910Z,22.63
2023-08-15T18:45:36.955Z,22.55
2023-08-15T18:48:11.804Z,22.48
2023-08-15T18:50:58.902Z,22.40
2023-08-15T18:53:32.015Z,22.34
2023-08-15T18:56:18.905Z,22.29
2023-08-15T18:58:52.009Z,22.25
2023-08-15T19:01:39.204Z,22.20
2023-08-15T19:04:20.010Z,22.15
2023-08-15T19:07:06.928Z,22.10
2023-08-15T19:09:40.064Z,22.07
2023-08-15T19:12:26.919Z,22.03
2023-08-15T19:15:08.905Z,21.94
2023-08-15T19:18:02.964Z,21.86
2023-08-15T19:20:49.898Z,21.81
2023-08-15T19:23:29.906Z,21.78
2023-08-15T19:26:23.925Z,21.74
2023-08-15T19:29:17.914Z,21.66
2023-08-15T19:32:12.930Z,21.63
2023-08-15T19:35:00.199Z,21.58
2023-08-15T19:37:40.928Z,21.54
2023-08-15T19:40:27.999Z,21.48
2023-08-15T19:43:07.961Z,21.45
2023-08-15T19:45:55.031Z,21.39
2023-08-15T19:48:34.925Z,21.39
2023-08-15T19:51:28.974Z,21.37
2023-08-15T19:54:24.058Z,21.34
2023-08-15T19:57:18.190Z,21.30
2023-08-15T20:00:04.937Z,21.25
2023-08-15T20:02:40.742Z,21.23
2023-08-15T20:05:34.957Z,21.21
2023-08-15T20:08:28.981Z,21.21
2023-08-15T20:11:15.943Z,21.21
2023-08-15T20:13:49.051Z,21.18
2023-08-15T20:16:36.012Z,21.14
2023-08-15T20:19:09.118Z,21.11
2023-08-15T20:21:57.049Z,21.11
2023-08-15T20:24:36.959Z,21.10
2023-08-15T20:27:30.945Z,21.05
2023-08-15T20:30:25.039Z,21.04
2023-08-15T20:33:19.007Z,21.05
2023-08-15T20:36:05.973Z,21.04
2023-08-15T20:38:39.080Z,21.04
2023-08-15T20:41:26.952Z,21.02
2023-08-15T20:44:00.276Z,21.01
2023-08-15T20:46:47.980Z,20.99
2023-08-15T20:49:21.077Z,21.01
2023-08-15T20:52:10.971Z,21.00
2023-08-15T20:54:44.061Z,20.99
2023-08-15T20:57:30.965Z,20.98
2023-08-15T21:00:12.978Z,20.97
2023-08-15T21:03:07.027Z,20.92
2023-08-15T21:06:00.980Z,20.86
2023-08-15T21:08:48.008Z,20.79
2023-08-15T21:11:22.157Z,20.73
2023-08-15T21:14:08.966Z,20.71
2023-08-15T21:16:50.135Z,20.71
2023-08-15T21:19:43.996Z,20.71
2023-08-15T21:22:37.996Z,20.67
2023-08-15T21:25:24.980Z,20.63
2023-08-15T21:27:58.166Z,20.58
2023-08-15T21:30:45.004Z,20.53
2023-08-15T21:33:24.965Z,20.52
2023-08-15T21:36:19.006Z,20.53
2023-08-15T21:39:06.988Z,20.52
2023-08-15T21:41:40.109Z,20.50
2023-08-15T21:44:26.994Z,20.49
2023-08-15T21:47:06.990Z,20.48
2023-08-15T21:50:01.002Z,20.45
2023-08-15T21:52:48.015Z,20.43
2023-08-15T21:55:21.126Z,20.42
2023-08-15T21:58:08.006Z,20.43
2023-08-15T22:00:50.019Z,20.41
2023-08-15T22:03:44.292Z,20.39
2023-08-15T22:06:38.003Z,20.37
2023-08-15T22:09:25.023Z,20.36
2023-08-15T22:11:58.153Z,20.34
2023-08-15T22:14:45.035Z,20.31
2023-08-15T22:17:31.589Z,20.30
2023-08-15T22:20:26.032Z,20.29
2023-08-15T22:22:59.152Z,20.24
2023-08-15T22:25:55.007Z,20.19
2023-08-15T22:28:28.133Z,20.15
2023-08-15T22:31:15.036Z,20.11
2023-08-15T22:33:55.045Z,20.05
2023-08-15T22:36:49.048Z,20.04
2023-08-15T22:39:43.035Z,20.06
2023-08-15T22:42:37.026Z,20.03
2023-08-15T22:45:31.059Z,19.99
2023-08-15T22:48:25.039Z,19.95
2023-08-15T22:51:19.026Z,19.90
2023-08-15T22:54:13.036Z,19.89
2023-08-15T22:57:00.037Z,19.92
2023-08-15T22:59:40.065Z,19.94
2023-08-15T23:02:27.044Z,19.96
2023-08-15T23:05:00.214Z,19.96
2023-08-15T23:07:48.068Z,19.91
2023-08-15T23:10:28.053Z,19.88
2023-08-15T23:13:15.064Z,19.87
2023-08-15T23:15:55.090Z,19.89
2023-08-15T23:18:49.062Z,19.87
2023-08-15T23:21:36.059Z,19.86
2023-08-15T23:24:16.054Z,19.87
2023-08-15T23:27:10.082Z,19.86
2023-08-15T23:29:57.067Z,19.87
2023-08-15T23:32:30.424Z,19.85
2023-08-15T23:35:19.090Z,19.84
2023-08-15T23:37:52.318Z,19.83
2023-08-15T23:40:39.061Z,19.77
2023-08-15T23:43:12.166Z,19.72
2023-08-15T23:45:59.093Z,19.68
2023-08-15T23:48:39.072Z,19.66
2023-08-15T23:51:26.093Z,19.59
2023-08-15T23:53:59.176Z,19.59
2023-08-15T23:56:46.056Z,19.55
2023-08-15T23:59:26.113Z,19.52
